Time;durP1;ratioP1;P1;durP2;ratioP2;P2;SDS_P1;SDS_P2;PMS_P1;PMS_P2;Temp;Humidity;BMP_temperature;BMP_pressure;BME280_temperature;BME280_humidity;BME280_pressure;Samples;Min_cycle;Max_cycle;Signal;HPM_P1;HPM_P2
2023/04/17 00:00:30;;;;;;;37.00;20.83;;;8.10;99.90;;;;;;5081623;28;20036;-72
2023/04/17 00:02:56;;;;;;;33.83;19.10;;;8.10;99.90;;;;;;5077848;28;20040;-73
2023/04/17 00:05:22;;;;;;;32.07;20.00;;;8.10;99.90;;;;;;5072199;28;20090;-73
2023/04/17 00:07:48;;;;;;;31.75;18.05;;;8.10;99.90;;;;;;5074425;28;20032;-73
2023/04/17 00:10:14;;;;;;;29.60;18.85;;;8.10;99.90;;;;;;5069396;28;20033;-73
2023/04/17 00:12:40;;;;;;;33.45;19.27;;;8.20;99.90;;;;;;5070971;28;20028;-73
2023/04/17 00:15:06;;;;;;;28.80;17.58;;;8.10;99.90;;;;;;5071273;28;20045;-74
2023/04/17 00:17:32;;;;;;;30.73;17.65;;;8.10;99.90;;;;;;5068212;28;20381;-73
2023/04/17 00:19:58;;;;;;;37.60;18.00;;;8.20;99.90;;;;;;5051636;28;20044;-74
2023/04/17 00:22:23;;;;;;;28.30;17.83;;;8.20;99.90;;;;;;5070438;28;20035;-73
2023/04/17 00:24:49;;;;;;;33.10;18.88;;;8.20;99.90;;;;;;5071338;28;20633;-74
2023/04/17 00:27:14;;;;;;;33.73;18.30;;;8.10;99.90;;;;;;5070835;28;20036;-73
2023/04/17 00:29:40;;;;;;;30.13;18.40;;;8.10;99.90;;;;;;5073568;28;20149;-73
2023/04/17 00:32:06;;;;;;;27.97;17.43;;;8.10;99.90;;;;;;5070625;28;20064;-73
2023/04/17 00:34:31;;;;;;;31.10;18.23;;;8.00;99.90;;;;;;5069591;28;20039;-73
2023/04/17 00:36:58;;;;;;;35.27;18.30;;;8.00;99.90;;;;;;5068139;28;20044;-73
2023/04/17 00:39:24;;;;;;;31.38;18.83;;;8.00;99.90;;;;;;5073847;28;20565;-73
2023/04/17 00:41:50;;;;;;;34.95;18.67;;;8.00;99.90;;;;;;5070456;28;20033;-74
2023/04/17 00:44:15;;;;;;;29.40;19.57;;;8.00;99.90;;;;;;5069324;28;20025;-74
2023/04/17 00:46:41;;;;;;;30.17;17.03;;;7.90;99.90;;;;;;5069972;28;20291;-74
2023/04/17 00:49:07;;;;;;;34.58;18.95;;;7.90;99.90;;;;;;5069126;28;20033;-73
2023/04/17 00:51:34;;;;;;;31.70;17.95;;;7.90;99.90;;;;;;5069268;28;20064;-73
2023/04/17 00:54:00;;;;;;;29.48;18.08;;;8.00;99.90;;;;;;5067800;28;20033;-73
2023/04/17 00:56:27;;;;;;;34.85;19.92;;;8.00;99.90;;;;;;5068161;28;20064;-73
2023/04/17 00:58:55;;;;;;;31.08;18.45;;;7.90;99.90;;;;;;5070790;28;20024;-73
2023/04/17 01:01:21;;;;;;;27.77;17.40;;;7.90;99.90;;;;;;5061856;28;20039;-74
2023/04/17 01:03:49;;;;;;;31.33;17.27;;;7.90;99.90;;;;;;5068124;28;20028;-73
2023/04/17 01:06:15;;;;;;;26.13;17.48;;;7.90;99.90;;;;;;5075744;28;20299;-74
2023/04/17 01:08:42;;;;;;;30.90;17.63;;;8.00;99.90;;;;;;5068267;28;20029;-73
2023/04/17 01:11:09;;;;;;;30.38;18.02;;;8.00;99.90;;;;;;5069187;28;20037;-74
2023/04/17 01:13:44;;;;;;;29.65;17.05;;;8.00;99.90;;;;;;5069226;28;20506;-73
2023/04/17 01:16:10;;;;;;;29.42;17.52;;;8.00;99.90;;;;;;5069234;28;20424;-73
2023/04/17 01:18:36;;;;;;;29.98;17.65;;;8.10;99.90;;;;;;5066886;28;20154;-73
2023/04/17 01:21:02;;;;;;;29.60;17.77;;;7.90;99.90;;;;;;5068873;28;20119;-73
2023/04/17 01:23:28;;;;;;;27.85;16.95;;;7.90;99.90;;;;;;5069983;28;20052;-73
2023/04/17 01:25:54;;;;;;;;;;;7.90;99.90;;;;;;5070762;28;20039;-73
2023/04/17 01:28:19;;;;;;;29.77;16.05;;;7.90;99.90;;;;;;5069536;28;19904;-73
2023/04/17 01:30:45;;;;;;;34.17;17.10;;;7.90;99.90;;;;;;5070121;28;20032;-73
2023/04/17 01:33:11;;;;;;;28.57;17.37;;;7.90;99.90;;;;;;5052282;28;20023;-73
2023/04/17 01:35:36;;;;;;;28.43;17.20;;;8.00;99.90;;;;;;5071024;28;20068;-73
2023/04/17 01:38:02;;;;;;;28.30;16.87;;;8.00;99.90;;;;;;5071709;28;20039;-73
2023/04/17 01:40:27;;;;;;;32.53;17.70;;;7.90;99.90;;;;;;5070931;28;20561;-73
2023/04/17 01:42:53;;;;;;;29.93;17.20;;;7.90;99.90;;;;;;5069691;28;20025;-73
2023/04/17 01:45:20;;;;;;;28.37;18.20;;;7.90;99.90;;;;;;5074118;28;20033;-72
2023/04/17 01:47:46;;;;;;;;;;;7.90;99.90;;;;;;5100003;28;20013;-74
2023/04/17 01:50:12;;;;;;;34.15;18.08;;;7.90;99.90;;;;;;5092211;28;19930;-73
2023/04/17 01:52:38;;;;;;;31.08;17.17;;;7.90;99.90;;;;;;5075453;28;20028;-73
2023/04/17 01:55:04;;;;;;;;;;;7.90;99.90;;;;;;5044170;28;20491;-73
2023/04/17 01:57:32;;;;;;;29.30;17.52;;;7.90;99.90;;;;;;5072225;28;20360;-73
2023/04/17 01:59:58;;;;;;;31.50;17.50;;;7.90;99.90;;;;;;5069393;28;20094;-74
2023/04/17 02:02:24;;;;;;;33.78;18.02;;;7.80;99.90;;;;;;5072059;28;20040;-73
2023/04/17 02:04:50;;;;;;;32.93;19.27;;;7.80;99.90;;;;;;5074347;28;20024;-73
2023/04/17 02:07:15;;;;;;;30.23;17.50;;;7.90;99.90;;;;;;5071920;28;20032;-74
2023/04/17 02:09:41;;;;;;;28.83;17.13;;;7.90;99.90;;;;;;5069072;28;20028;-73
2023/04/17 02:12:06;;;;;;;27.97;17.63;;;7.90;99.90;;;;;;5071548;28;20559;-73
2023/04/17 02:14:32;;;;;;;29.73;16.73;;;7.80;99.90;;;;;;5069657;28;20037;-73
2023/04/17 02:16:59;;;;;;;29.17;17.63;;;7.80;99.90;;;;;;5069917;28;20492;-74
2023/04/17 02:19:25;;;;;;;33.35;19.83;;;7.80;99.90;;;;;;5034588;28;1093961;-74
2023/04/17 02:21:50;;;;;;;29.20;17.03;;;7.80;99.90;;;;;;5072930;28;20066;-73
2023/04/17 02:24:16;;;;;;;28.37;17.33;;;7.90;99.90;;;;;;5052566;28;20027;-73
2023/04/17 02:26:41;;;;;;;30.07;17.33;;;7.90;99.90;;;;;;5070304;28;20102;-73
2023/04/17 02:29:07;;;;;;;30.33;18.13;;;7.90;99.90;;;;;;5072653;28;20384;-73
2023/04/17 02:31:32;;;;;;;31.17;16.43;;;7.80;99.90;;;;;;5071092;28;20035;-73
2023/04/17 02:33:58;;;;;;;28.30;17.40;;;7.80;99.90;;;;;;5037983;28;20029;-73
2023/04/17 02:36:25;;;;;;;32.20;16.57;;;7.80;99.90;;;;;;5052746;28;20036;-73
2023/04/17 02:38:50;;;;;;;32.03;17.55;;;7.90;99.90;;;;;;5073820;28;20380;-73
2023/04/17 02:41:16;;;;;;;27.13;17.67;;;7.90;99.90;;;;;;5070386;28;20035;-73
2023/04/17 02:43:42;;;;;;;31.43;17.67;;;7.80;99.90;;;;;;5071165;28;20035;-74
2023/04/17 02:46:07;;;;;;;31.20;18.80;;;7.80;99.90;;;;;;5070976;28;20063;-73
2023/04/17 02:48:33;;;;;;;29.80;17.67;;;7.70;99.90;;;;;;5074480;28;20111;-73
2023/04/17 02:50:58;;;;;;;36.70;18.03;;;7.80;99.90;;;;;;5070160;28;20029;-73
2023/04/17 02:53:24;;;;;;;31.30;18.20;;;7.80;99.90;;;;;;5072059;28;20072;-73
2023/04/17 02:55:50;;;;;;;29.97;18.07;;;7.80;99.90;;;;;;5070046;28;20193;-73
2023/04/17 02:58:15;;;;;;;32.93;16.50;;;7.70;99.90;;;;;;5073797;28;20567;-73
2023/04/17 03:00:41;;;;;;;28.67;18.07;;;7.70;99.90;;;;;;5071947;28;20499;-73
2023/04/17 03:03:06;;;;;;;30.73;19.20;;;7.70;99.90;;;;;;5074221;28;20060;-73
2023/04/17 03:05:32;;;;;;;26.47;17.00;;;7.80;99.90;;;;;;5072386;28;20050;-73
2023/04/17 03:07:58;;;;;;;28.10;17.47;;;7.80;99.90;;;;;;5074944;28;20384;-73
2023/04/17 03:10:24;;;;;;;29.27;16.90;;;7.80;99.90;;;;;;5071059;28;20408;-74
2023/04/17 03:12:49;;;;;;;25.10;16.43;;;7.80;99.90;;;;;;5069261;28;20028;-73
2023/04/17 03:15:15;;;;;;;30.30;17.80;;;7.80;99.90;;;;;;5071481;28;20032;-74
2023/04/17 03:17:41;;;;;;;30.73;17.75;;;7.90;99.90;;;;;;5071856;28;20118;-73
2023/04/17 03:20:07;;;;;;;31.10;17.77;;;7.90;99.90;;;;;;5072587;28;20037;-73
2023/04/17 03:22:33;;;;;;;31.92;17.75;;;7.90;99.90;;;;;;5079978;28;20046;-73
2023/04/17 03:24:59;;;;;;;29.35;17.02;;;8.00;99.90;;;;;;5070082;28;20466;-73
2023/04/17 03:27:25;;;;;;;33.13;17.60;;;8.00;99.90;;;;;;5069766;28;20081;-73
2023/04/17 03:29:51;;;;;;;28.33;17.08;;;7.90;99.90;;;;;;5071446;28;20038;-73
2023/04/17 03:32:17;;;;;;;29.50;17.38;;;7.90;99.90;;;;;;5070562;28;20101;-73
2023/04/17 03:34:42;;;;;;;28.70;15.93;;;8.00;99.90;;;;;;5070528;28;20048;-73
2023/04/17 03:37:08;;;;;;;27.43;16.87;;;7.90;99.90;;;;;;5086443;28;20046;-72
2023/04/17 03:39:36;;;;;;;26.50;16.77;;;7.80;99.90;;;;;;5082769;28;20058;-74
2023/04/17 03:42:02;;;;;;;29.05;17.35;;;7.90;99.90;;;;;;5069232;28;20024;-74
2023/04/17 03:44:27;;;;;;;28.70;16.47;;;7.90;99.90;;;;;;5073508;28;20432;-73
2023/04/17 03:46:53;;;;;;;26.60;16.05;;;7.90;99.90;;;;;;5067470;28;20404;-74
2023/04/17 03:49:19;;;;;;;25.60;16.40;;;7.90;99.90;;;;;;5068006;28;20032;-73
2023/04/17 03:51:44;;;;;;;33.53;18.03;;;7.90;99.90;;;;;;5070308;28;20071;-74
2023/04/17 03:54:10;;;;;;;29.23;16.13;;;7.90;99.90;;;;;;5068686;28;20028;-74
2023/04/17 03:56:36;;;;;;;27.90;16.70;;;7.90;99.90;;;;;;5067765;28;20048;-74
2023/04/17 03:59:03;;;;;;;27.45;16.77;;;7.90;99.90;;;;;;5069297;28;20048;-73
2023/04/17 04:01:29;;;;;;;30.65;16.50;;;7.80;99.90;;;;;;5070100;28;20032;-72
2023/04/17 04:03:55;;;;;;;34.47;16.65;;;7.90;99.90;;;;;;5068778;28;20025;-72
2023/04/17 04:06:21;;;;;;;27.23;16.65;;;7.90;99.90;;;;;;5067573;28;20039;-73
2023/04/17 04:08:48;;;;;;;26.15;15.98;;;7.90;99.90;;;;;;5070684;28;20035;-73
2023/04/17 04:11:14;;;;;;;26.02;16.23;;;7.90;99.90;;;;;;5067474;28;20068;-74
2023/04/17 04:13:41;;;;;;;;;;;7.90;99.90;;;;;;5071304;28;20040;-74
2023/04/17 04:16:08;;;;;;;26.73;15.87;;;8.00;99.90;;;;;;5068273;28;19920;-73
2023/04/17 04:18:35;;;;;;;30.60;16.98;;;7.90;99.90;;;;;;5069451;28;20415;-73
2023/04/17 04:21:00;;;;;;;30.38;16.58;;;7.90;99.90;;;;;;5071833;28;20032;-73
2023/04/17 04:23:26;;;;;;;29.93;16.80;;;7.90;99.90;;;;;;5067199;28;20118;-72
2023/04/17 04:25:55;;;;;;;26.10;16.05;;;8.00;99.90;;;;;;5066701;28;20036;-73
2023/04/17 04:28:22;;;;;;;31.60;17.48;;;8.00;99.90;;;;;;5067810;28;20036;-72
2023/04/17 04:30:49;;;;;;;27.23;15.85;;;8.00;99.90;;;;;;5065337;28;20475;-73
2023/04/17 04:33:19;;;;;;;26.98;17.08;;;7.90;99.90;;;;;;5068283;28;20042;-73
2023/04/17 04:35:50;;;;;;;27.60;16.83;;;8.00;99.90;;;;;;5070499;28;20037;-73
2023/04/17 04:38:16;;;;;;;35.90;16.73;;;7.90;99.90;;;;;;5065407;28;20115;-73
2023/04/17 04:40:44;;;;;;;27.23;16.23;;;8.00;99.90;;;;;;5066729;28;20602;-74
2023/04/17 04:43:09;;;;;;;31.20;18.15;;;8.00;99.90;;;;;;5067798;28;20047;-73
2023/04/17 04:45:35;;;;;;;28.13;16.50;;;8.00;99.90;;;;;;5069055;28;20025;-72
2023/04/17 04:48:01;;;;;;;33.58;17.20;;;8.00;99.90;;;;;;5066186;28;20031;-73
2023/04/17 04:50:26;;;;;;;31.83;17.10;;;7.90;99.90;;;;;;5067606;28;20455;-72
2023/04/17 04:52:52;;;;;;;25.37;16.07;;;8.00;99.90;;;;;;5070938;28;20038;-72
2023/04/17 04:55:18;;;;;;;26.77;16.52;;;7.90;99.90;;;;;;5048540;28;20488;-73
2023/04/17 04:57:44;;;;;;;27.58;17.15;;;8.00;99.90;;;;;;5068517;28;20036;-73
2023/04/17 05:00:12;;;;;;;29.38;16.55;;;8.00;99.90;;;;;;5066821;28;20165;-72
2023/04/17 05:02:37;;;;;;;29.77;16.25;;;8.00;99.90;;;;;;5067894;28;20029;-73
2023/04/17 05:05:03;;;;;;;29.90;16.83;;;8.00;99.90;;;;;;5066838;28;20127;-72
2023/04/17 05:07:29;;;;;;;28.42;16.95;;;8.00;99.90;;;;;;5070226;28;20033;-72
2023/04/17 05:09:55;;;;;;;30.25;16.95;;;8.00;99.90;;;;;;5070538;28;20037;-73
2023/04/17 05:12:20;;;;;;;26.80;16.37;;;8.00;99.90;;;;;;5067023;28;20025;-71
2023/04/17 05:14:46;;;;;;;29.13;16.50;;;8.00;99.90;;;;;;5071562;28;20114;-72
2023/04/17 05:17:12;;;;;;;25.13;15.90;;;8.00;99.90;;;;;;5068513;28;20035;-72
2023/04/17 05:19:37;;;;;;;27.53;17.10;;;8.10;99.90;;;;;;5067120;28;20400;-74
2023/04/17 05:22:03;;;;;;;29.40;16.30;;;8.10;99.90;;;;;;5066339;28;20507;-73
2023/04/17 05:24:29;;;;;;;27.47;16.00;;;8.10;99.90;;;;;;5066805;28;20111;-72
2023/04/17 05:26:55;;;;;;;27.02;16.52;;;8.10;99.90;;;;;;5077799;28;20028;-72
2023/04/17 05:29:23;;;;;;;27.63;16.38;;;8.10;99.90;;;;;;5088530;28;20074;-71
2023/04/17 05:31:50;;;;;;;28.90;17.20;;;8.10;99.90;;;;;;5073195;28;20048;-72
2023/04/17 05:34:15;;;;;;;30.58;16.13;;;8.10;99.90;;;;;;5070054;28;20032;-73
2023/04/17 05:36:41;;;;;;;25.67;15.20;;;8.10;99.90;;;;;;5071170;28;20036;-71
2023/04/17 05:39:07;;;;;;;27.33;16.03;;;8.20;99.90;;;;;;5066943;28;20567;-72
2023/04/17 05:41:32;;;;;;;32.53;15.47;;;8.20;99.90;;;;;;5063771;28;20404;-72
2023/04/17 05:43:58;;;;;;;30.83;16.87;;;8.30;99.90;;;;;;5066219;28;20032;-73
2023/04/17 05:46:23;;;;;;;30.30;16.60;;;8.30;99.90;;;;;;5067827;28;20032;-72
2023/04/17 05:48:49;;;;;;;29.00;16.67;;;8.30;99.90;;;;;;5068580;28;20381;-72
2023/04/17 05:51:15;;;;;;;23.10;15.27;;;8.30;99.90;;;;;;5068668;28;20492;-72
2023/04/17 05:53:43;;;;;;;26.57;16.03;;;8.30;99.90;;;;;;5067211;28;20044;-72
2023/04/17 05:56:10;;;;;;;32.03;17.98;;;8.30;99.90;;;;;;5066722;28;20032;-73
2023/04/17 05:58:36;;;;;;;24.08;16.00;;;8.30;99.90;;;;;;5074554;28;20124;-72
2023/04/17 06:01:04;;;;;;;33.08;16.63;;;8.30;99.90;;;;;;5065715;28;20578;-72
2023/04/17 06:03:50;;;;;;;26.52;15.55;;;8.30;99.90;;;;;;5066910;28;20118;-72
2023/04/17 06:06:16;;;;;;;23.23;15.13;;;8.30;99.90;;;;;;5006696;28;20060;-73
2023/04/17 06:08:41;;;;;;;29.47;16.73;;;8.40;99.90;;;;;;5001529;28;20455;-73
2023/04/17 06:11:07;;;;;;;29.83;17.37;;;8.40;99.90;;;;;;5010695;28;20375;-72
2023/04/17 06:13:33;;;;;;;26.13;16.23;;;8.50;99.90;;;;;;5012164;28;20053;-72
2023/04/17 06:15:58;;;;;;;24.30;15.07;;;8.50;99.90;;;;;;5010275;28;20046;-73
2023/04/17 06:18:24;;;;;;;26.30;15.37;;;8.50;99.90;;;;;;5008554;28;20073;-73
2023/04/17 06:20:49;;;;;;;22.03;13.87;;;8.50;99.90;;;;;;5006610;28;20097;-73
2023/04/17 06:23:15;;;;;;;22.67;14.17;;;8.60;99.90;;;;;;5010181;28;20061;-72
2023/04/17 06:25:41;;;;;;;25.33;13.77;;;8.60;99.90;;;;;;4996042;28;20128;-72
2023/04/17 06:28:07;;;;;;;25.77;14.80;;;8.70;99.90;;;;;;5009830;28;20030;-72
2023/04/17 06:30:32;;;;;;;23.77;13.47;;;8.70;99.90;;;;;;5007682;28;20038;-72
2023/04/17 06:32:58;;;;;;;23.43;14.17;;;8.70;99.90;;;;;;5005051;28;20117;-72
2023/04/17 06:35:23;;;;;;;24.50;13.53;;;8.70;99.90;;;;;;5013480;28;20300;-71
2023/04/17 06:37:49;;;;;;;22.03;12.93;;;8.80;99.90;;;;;;5056445;28;20125;-72
2023/04/17 06:40:15;;;;;;;20.58;12.40;;;8.80;99.90;;;;;;5071833;28;20054;-72
2023/04/17 06:42:40;;;;;;;22.10;14.47;;;8.80;99.90;;;;;;5065200;28;20064;-70
2023/04/17 06:45:07;;;;;;;20.17;12.70;;;8.90;99.90;;;;;;5045019;28;20032;-72
2023/04/17 06:47:32;;;;;;;25.33;13.43;;;9.00;99.90;;;;;;5069273;28;20024;-72
2023/04/17 06:49:58;;;;;;;26.90;12.63;;;9.00;99.90;;;;;;5069208;28;20105;-71
2023/04/17 06:52:25;;;;;;;17.17;11.70;;;9.00;99.90;;;;;;5070062;28;20499;-72
2023/04/17 06:54:53;;;;;;;20.05;12.13;;;9.00;99.90;;;;;;5070449;28;20049;-72
2023/04/17 06:57:19;;;;;;;19.48;12.68;;;8.90;99.90;;;;;;5071804;28;20044;-72
2023/04/17 06:59:44;;;;;;;20.17;12.07;;;9.00;99.90;;;;;;5071047;28;20117;-72
2023/04/17 07:02:10;;;;;;;21.33;12.67;;;9.00;99.90;;;;;;5068607;28;20039;-72
2023/04/17 07:04:35;;;;;;;19.03;12.67;;;9.00;99.90;;;;;;5053843;28;20563;-72
2023/04/17 07:07:01;;;;;;;18.63;12.23;;;9.10;99.90;;;;;;5065538;28;20025;-72
2023/04/17 07:09:27;;;;;;;24.47;13.07;;;9.10;99.90;;;;;;5067407;28;20032;-72
2023/04/17 07:11:52;;;;;;;21.20;13.00;;;9.10;99.90;;;;;;5068781;28;20557;-71
2023/04/17 07:14:18;;;;;;;22.13;13.10;;;9.10;99.90;;;;;;5070796;28;20032;-72
2023/04/17 07:16:44;;;;;;;19.50;12.97;;;9.00;99.90;;;;;;5073604;28;20302;-71
2023/04/17 07:19:09;;;;;;;22.63;13.13;;;9.10;99.90;;;;;;5074566;28;20032;-69
2023/04/17 07:21:35;;;;;;;22.33;13.80;;;9.20;99.90;;;;;;5078360;28;20049;-74
2023/04/17 07:24:01;;;;;;;23.43;13.23;;;9.30;99.90;;;;;;5077682;28;20041;-71
2023/04/17 07:26:26;;;;;;;20.97;13.33;;;9.50;99.90;;;;;;5071786;28;20028;-72
2023/04/17 07:28:52;;;;;;;22.17;13.00;;;9.50;99.90;;;;;;5068219;28;20035;-72
2023/04/17 07:31:17;;;;;;;23.03;13.73;;;9.60;99.90;;;;;;5071485;28;20029;-70
2023/04/17 07:33:43;;;;;;;22.33;12.47;;;9.60;99.90;;;;;;5070345;28;20048;-69
2023/04/17 07:36:10;;;;;;;21.47;13.27;;;9.80;99.90;;;;;;5067363;28;20032;-71
2023/04/17 07:38:36;;;;;;;24.70;15.20;;;9.90;99.90;;;;;;5076129;28;20035;-69
2023/04/17 07:41:02;;;;;;;19.48;13.18;;;9.70;99.90;;;;;;5069034;28;20105;-70
2023/04/17 07:43:28;;;;;;;18.97;12.27;;;9.70;99.90;;;;;;5068706;28;20037;-70
2023/04/17 07:45:54;;;;;;;19.08;12.60;;;9.80;99.90;;;;;;5068329;28;20028;-70
2023/04/17 07:48:21;;;;;;;20.48;12.95;;;9.80;99.90;;;;;;5067430;28;20033;-69
2023/04/17 07:50:50;;;;;;;19.58;12.68;;;9.90;99.90;;;;;;5068230;28;20033;-71
2023/04/17 07:53:17;;;;;;;18.58;12.30;;;10.00;99.90;;;;;;5066652;28;20031;-69
2023/04/17 07:55:43;;;;;;;21.33;12.35;;;10.10;99.90;;;;;;5069616;28;20123;-70
2023/04/17 07:58:10;;;;;;;22.00;12.65;;;10.00;99.90;;;;;;5062337;28;20034;-70
2023/04/17 08:00:37;;;;;;;22.42;13.57;;;10.10;99.90;;;;;;5067200;28;20044;-70
2023/04/17 08:03:02;;;;;;;17.13;12.27;;;10.20;99.90;;;;;;5046362;28;20024;-70
2023/04/17 08:05:28;;;;;;;21.87;13.10;;;10.30;99.90;;;;;;5065302;28;20542;-70
2023/04/17 08:07:54;;;;;;;23.00;12.90;;;10.40;99.90;;;;;;5063559;28;20127;-71
2023/04/17 08:10:19;;;;;;;17.50;12.83;;;10.50;99.90;;;;;;5070598;28;20124;-70
2023/04/17 08:12:45;;;;;;;23.87;13.27;;;10.50;99.90;;;;;;5066351;28;20274;-71
2023/04/17 08:15:11;;;;;;;19.10;12.70;;;10.60;99.90;;;;;;5068429;28;20055;-70
2023/04/17 08:17:36;;;;;;;23.40;13.60;;;10.60;99.90;;;;;;5069703;28;20115;-70
2023/04/17 08:20:06;;;;;;;26.77;13.33;;;10.60;99.90;;;;;;5069056;28;20108;-70
2023/04/17 08:22:38;;;;;;;22.00;12.15;;;10.70;99.90;;;;;;5065838;28;20021;-71
2023/04/17 08:25:08;;;;;;;22.20;12.90;;;10.70;99.90;;;;;;5067601;28;20071;-70
2023/04/17 08:27:37;;;;;;;23.98;13.25;;;10.70;99.90;;;;;;5066850;28;20020;-70
2023/04/17 08:30:04;;;;;;;16.10;11.82;;;10.80;99.90;;;;;;5065943;28;20090;-69
2023/04/17 08:32:40;;;;;;;20.58;12.77;;;11.00;99.90;;;;;;5066150;28;20431;-69
2023/04/17 08:35:07;;;;;;;17.77;11.63;;;10.90;99.90;;;;;;5061259;28;20529;-70
2023/04/17 08:37:34;;;;;;;18.80;11.85;;;11.00;99.90;;;;;;5057842;28;20036;-71
2023/04/17 08:40:03;;;;;;;19.67;12.00;;;11.00;99.90;;;;;;5055214;28;20032;-71
2023/04/17 08:42:30;;;;;;;17.00;11.52;;;11.00;99.90;;;;;;5064673;28;20050;-70
2023/04/17 08:44:59;;;;;;;19.08;12.45;;;11.10;99.90;;;;;;5064931;28;20170;-70
2023/04/17 08:47:26;;;;;;;17.30;12.00;;;11.40;99.90;;;;;;5062991;28;20056;-70
2023/04/17 08:49:51;;;;;;;18.90;10.82;;;11.50;99.90;;;;;;5060844;28;20901;-70
2023/04/17 08:52:17;;;;;;;18.30;11.33;;;11.60;99.90;;;;;;5063881;28;20040;-70
2023/04/17 08:54:42;;;;;;;20.20;11.57;;;11.60;99.90;;;;;;5064711;28;20028;-70
2023/04/17 08:57:08;;;;;;;15.37;10.57;;;11.60;99.90;;;;;;5058694;28;20515;-71
2023/04/17 08:59:34;;;;;;;16.30;10.93;;;11.80;99.90;;;;;;5051204;28;20086;-70
2023/04/17 09:02:04;;;;;;;16.30;10.83;;;12.70;99.90;;;;;;5065901;28;20039;-70
2023/04/17 09:04:40;;;;;;;18.73;10.27;;;12.40;99.90;;;;;;5062418;28;20496;-70
2023/04/17 09:07:08;;;;;;;16.75;11.20;;;12.40;99.90;;;;;;5062327;28;20488;-71
2023/04/17 09:09:54;;;;;;;21.77;12.52;;;11.90;99.90;;;;;;5082227;28;20024;-68
2023/04/17 09:12:21;;;;;;;17.50;10.60;;;11.90;99.90;;;;;;5053800;28;20494;-70
2023/04/17 09:14:47;;;;;;;14.95;10.57;;;11.90;99.90;;;;;;5066885;28;20036;-70
2023/04/17 09:17:18;;;;;;;14.93;10.40;;;11.80;99.90;;;;;;5064663;28;20035;-72
2023/04/17 09:20:08;;;;;;;16.15;10.95;;;11.60;99.90;;;;;;5064916;28;20037;-68
2023/04/17 09:22:39;;;;;;;17.20;9.85;;;11.60;99.90;;;;;;5062659;28;20028;-72
2023/04/17 09:25:15;;;;;;;17.08;10.73;;;11.50;99.90;;;;;;5045592;28;20033;-71
2023/04/17 09:27:41;;;;;;;16.65;11.25;;;11.50;99.90;;;;;;5062457;28;20047;-75
2023/04/17 09:30:07;;;;;;;17.60;10.50;;;11.30;99.90;;;;;;5062633;28;20081;-72
2023/04/17 09:32:33;;;;;;;20.73;10.48;;;11.20;99.90;;;;;;5064474;28;20530;-71
2023/04/17 09:35:03;;;;;;;16.97;10.93;;;11.30;99.90;;;;;;5060931;28;20053;-70
2023/04/17 09:37:52;;;;;;;20.15;9.95;;;11.40;99.90;;;;;;5062212;28;20028;-70
2023/04/17 09:40:20;;;;;;;13.85;9.52;;;11.60;99.90;;;;;;5060073;28;20093;-71
2023/04/17 09:42:58;;;;;;;14.15;10.15;;;11.90;99.90;;;;;;5045102;28;20290;-74
2023/04/17 09:45:25;;;;;;;13.88;10.10;;;11.90;99.90;;;;;;5066474;28;20517;-72
2023/04/17 09:47:57;;;;;;;14.18;9.90;;;11.80;99.90;;;;;;5066324;28;20167;-72
2023/04/17 09:50:25;;;;;;;13.73;9.20;;;11.70;99.90;;;;;;5046063;28;20034;-73
2023/04/17 09:52:53;;;;;;;13.35;9.13;;;11.70;99.90;;;;;;5062768;28;20024;-73
2023/04/17 09:55:20;;;;;;;15.60;9.93;;;11.80;99.90;;;;;;5066003;28;20108;-73
2023/04/17 09:57:48;;;;;;;13.50;9.50;;;11.90;99.90;;;;;;5064824;28;20032;-73
2023/04/17 10:00:16;;;;;;;15.50;10.02;;;12.00;99.90;;;;;;5067481;28;20032;-72
2023/04/17 10:02:42;;;;;;;18.00;10.13;;;12.10;99.90;;;;;;5064289;28;20020;-71
2023/04/17 10:05:10;;;;;;;15.40;10.02;;;12.30;99.90;;;;;;5050361;28;20040;-71
2023/04/17 10:07:37;;;;;;;11.98;8.52;;;12.00;99.90;;;;;;5063762;28;20369;-71
2023/04/17 10:10:08;;;;;;;13.35;9.13;;;12.10;99.90;;;;;;5063375;28;20174;-72
2023/04/17 10:12:35;;;;;;;14.50;9.57;;;12.10;99.90;;;;;;5063391;28;20045;-71
2023/04/17 10:15:02;;;;;;;12.70;9.32;;;12.00;99.90;;;;;;5063068;28;20033;-70
2023/04/17 10:17:33;;;;;;;14.15;9.05;;;11.90;99.90;;;;;;5066938;28;20040;-69
2023/04/17 10:20:31;;;;;;;14.88;9.48;;;11.80;99.90;;;;;;5064617;28;20044;-70
2023/04/17 10:22:57;;;;;;;13.27;9.23;;;12.10;99.90;;;;;;5002127;28;20040;-70
2023/04/17 10:25:24;;;;;;;13.20;9.30;;;12.30;99.90;;;;;;5048716;28;20028;-71
2023/04/17 10:27:54;;;;;;;14.57;8.70;;;12.60;99.90;;;;;;5064370;28;20124;-70
2023/04/17 10:30:21;;;;;;;15.98;9.98;;;12.70;99.90;;;;;;5065132;28;20029;-73
2023/04/17 10:33:18;;;;;;;15.20;9.88;;;12.70;99.90;;;;;;5050043;28;20050;-72
2023/04/17 10:35:44;;;;;;;13.25;9.88;;;12.60;99.90;;;;;;5054836;28;20432;-71
2023/04/17 10:38:10;;;;;;;16.65;10.30;;;12.50;99.90;;;;;;5048757;28;20023;-71
2023/04/17 10:40:37;;;;;;;18.02;10.73;;;12.40;99.90;;;;;;5065499;28;20037;-72
2023/04/17 10:43:13;;;;;;;17.35;11.48;;;12.30;99.90;;;;;;5061559;28;20038;-71
2023/04/17 10:45:55;;;;;;;14.52;9.88;;;12.30;99.90;;;;;;5065968;28;20690;-70
2023/04/17 10:48:27;;;;;;;18.25;11.23;;;12.20;99.90;;;;;;5067516;28;20499;-74
2023/04/17 10:50:54;;;;;;;18.42;11.43;;;12.20;99.90;;;;;;5067398;28;20028;-70
2023/04/17 10:53:39;;;;;;;20.63;10.70;;;12.30;99.90;;;;;;5064160;28;20052;-71
2023/04/17 10:56:05;;;;;;;17.73;11.40;;;12.40;99.90;;;;;;5069038;28;20032;-71
2023/04/17 10:58:31;;;;;;;16.88;11.45;;;12.40;99.90;;;;;;5064758;28;20127;-71
2023/04/17 11:01:02;;;;;;;18.20;11.43;;;12.30;99.90;;;;;;5073274;28;20060;-71
2023/04/17 11:03:29;;;;;;;21.13;11.98;;;12.30;99.90;;;;;;5067895;28;20020;-74
2023/04/17 11:05:58;;;;;;;17.98;12.23;;;12.20;99.90;;;;;;5063934;28;20458;-72
2023/04/17 11:08:24;;;;;;;16.73;11.30;;;12.10;99.90;;;;;;5064908;28;20708;-73
2023/04/17 11:10:56;;;;;;;19.70;11.07;;;12.00;99.90;;;;;;5063520;28;20117;-69
2023/04/17 11:13:21;;;;;;;18.77;11.60;;;12.00;99.90;;;;;;5066079;28;20032;-71
2023/04/17 11:15:49;;;;;;;15.87;11.03;;;12.00;99.90;;;;;;5062351;28;20465;-71
2023/04/17 11:18:14;;;;;;;16.63;11.77;;;12.00;99.90;;;;;;5046643;28;20028;-70
2023/04/17 11:20:42;;;;;;;17.92;11.27;;;12.00;99.90;;;;;;5060679;28;20028;-71
2023/04/17 11:23:07;;;;;;;17.60;12.27;;;12.00;99.90;;;;;;5062671;28;20111;-71
2023/04/17 11:25:33;;;;;;;19.10;11.93;;;12.10;99.90;;;;;;5065193;28;20209;-70
2023/04/17 11:28:01;;;;;;;19.27;12.70;;;11.90;99.90;;;;;;5062204;28;20081;-70
2023/04/17 11:30:29;;;;;;;17.77;11.73;;;11.70;99.90;;;;;;5046372;28;20032;-71
2023/04/17 11:32:57;;;;;;;17.23;11.75;;;11.70;99.90;;;;;;5061826;28;20028;-70
2023/04/17 11:35:27;;;;;;;21.85;12.88;;;11.60;99.90;;;;;;5062569;28;20106;-70
2023/04/17 11:38:22;;;;;;;18.67;12.07;;;11.60;99.90;;;;;;5059784;28;20546;-70
2023/04/17 11:40:52;;;;;;;18.15;11.65;;;11.70;99.90;;;;;;5062124;28;20039;-71
2023/04/17 11:43:20;;;;;;;18.65;12.15;;;11.60;99.90;;;;;;5063838;28;20039;-70
2023/04/17 11:45:48;;;;;;;17.05;11.57;;;11.60;99.90;;;;;;5064148;28;20059;-67
2023/04/17 11:48:15;;;;;;;19.67;12.55;;;11.50;99.90;;;;;;5046909;28;20028;-69
2023/04/17 11:50:43;;;;;;;17.50;10.95;;;11.50;99.90;;;;;;5063755;28;20028;-72
2023/04/17 11:53:13;;;;;;;17.85;11.93;;;11.50;99.90;;;;;;5060955;28;20040;-70
2023/04/17 11:55:38;;;;;;;17.48;12.05;;;11.60;99.90;;;;;;5064375;28;20032;-72
2023/04/17 11:58:08;;;;;;;18.17;11.87;;;11.70;99.90;;;;;;5065643;28;20454;-70
2023/04/17 12:00:36;;;;;;;20.52;11.82;;;11.80;99.90;;;;;;5063244;28;20107;-70
2023/04/17 12:03:23;;;;;;;19.08;11.77;;;11.90;99.90;;;;;;5066195;28;20036;-71
2023/04/17 12:06:02;;;;;;;15.10;10.68;;;12.20;99.90;;;;;;5066458;28;20047;-71
2023/04/17 12:08:29;;;;;;;23.00;11.38;;;12.20;99.90;;;;;;5071096;28;20040;-69
2023/04/17 12:10:56;;;;;;;20.75;12.30;;;12.30;99.90;;;;;;5065711;28;20040;-71
2023/04/17 12:13:22;;;;;;;;;;;12.20;99.90;;;;;;5066856;28;20749;-70
2023/04/17 12:15:48;;;;;;;20.20;12.55;;;12.10;99.90;;;;;;5065784;28;19927;-71
2023/04/17 12:18:13;;;;;;;23.93;14.07;;;12.20;99.90;;;;;;5069013;28;20567;-71
2023/04/17 12:20:39;;;;;;;19.27;13.53;;;12.40;99.90;;;;;;5068953;28;20040;-72
2023/04/17 12:23:05;;;;;;;20.87;13.80;;;12.40;99.90;;;;;;5069513;28;20029;-70
2023/04/17 12:25:32;;;;;;;23.10;12.82;;;12.50;99.90;;;;;;5070446;28;20103;-71
2023/04/17 12:27:58;;;;;;;15.75;11.20;;;12.50;99.90;;;;;;5050260;28;20043;-71
2023/04/17 12:30:27;;;;;;;24.48;16.45;;;12.50;99.90;;;;;;5066890;28;20060;-70
2023/04/17 12:32:53;;;;;;;23.45;14.05;;;12.40;99.90;;;;;;5066351;28;20034;-70
2023/04/17 12:35:20;;;;;;;28.08;15.55;;;12.40;99.90;;;;;;5071412;28;20024;-70